createdAt,value
2022-12-23T00:04:31.311Z,22.73
2022-12-23T00:09:34.742Z,23.05
2022-12-23T00:14:38.302Z,22.17
2022-12-23T00:19:41.821Z,22.08
2022-12-23T00:24:45.939Z,18.55
2022-12-23T00:29:49.188Z,20.88
2022-12-23T00:39:56.972Z,19.00
2022-12-23T00:45:03.394Z,20.13
2022-12-23T00:50:07.716Z,21.23
2022-12-23T00:55:11.070Z,21.75
2022-12-23T01:00:15.956Z,20.17
2022-12-23T01:05:19.786Z,21.52
2022-12-23T01:10:23.128Z,20.98
2022-12-23T01:20:29.359Z,18.92
2022-12-23T01:35:38.812Z,18.50
2022-12-23T01:40:45.157Z,18.52
2022-12-23T01:45:48.808Z,19.55
2022-12-23T01:50:54.135Z,19.70
2022-12-23T01:56:06.864Z,20.27
2022-12-23T02:01:11.620Z,20.08
2022-12-23T02:06:22.745Z,19.83
2022-12-23T02:11:45.575Z,20.50
2022-12-23T02:17:03.973Z,22.08
2022-12-23T02:22:19.280Z,19.92
2022-12-23T02:27:43.337Z,21.23
2022-12-23T02:33:41.139Z,22.42
2022-12-23T02:39:06.929Z,20.95
2022-12-23T02:44:27.595Z,22.17
2022-12-23T02:49:34.782Z,23.15
2022-12-23T02:55:00.513Z,21.65
2022-12-23T03:00:06.274Z,20.90
2022-12-23T03:05:46.797Z,24.02
2022-12-23T03:11:09.310Z,23.02
2022-12-23T03:16:44.962Z,22.80
2022-12-23T03:27:17.554Z,22.75
2022-12-23T03:32:23.395Z,22.13
2022-12-23T03:37:30.559Z,20.52
2022-12-23T03:42:40.927Z,21.25
2022-12-23T03:47:48.955Z,21.85
2022-12-23T03:52:56.602Z,21.80
2022-12-23T03:58:14.750Z,20.88
2022-12-23T04:03:53.077Z,20.95
2022-12-23T04:08:57.766Z,23.20
2022-12-23T04:14:01.459Z,22.33
2022-12-23T04:19:04.950Z,22.08
2022-12-23T04:24:08.663Z,21.63
2022-12-23T04:29:12.304Z,23.67
2022-12-23T04:34:16.155Z,21.42
2022-12-23T04:39:21.058Z,21.10
2022-12-23T04:44:24.554Z,20.85
2022-12-23T04:49:27.994Z,20.58
2022-12-23T04:54:31.540Z,21.75
2022-12-23T04:59:35.116Z,20.90
2022-12-23T05:04:38.675Z,19.75
2022-12-23T05:09:42.312Z,20.10
2022-12-23T05:14:45.871Z,20.08
2022-12-23T05:19:49.838Z,21.05
2022-12-23T05:24:53.237Z,19.77
2022-12-23T05:35:00.513Z,21.48
2022-12-23T05:40:04.304Z,20.05
2022-12-23T05:45:09.716Z,19.98
2022-12-23T05:50:13.855Z,21.80
2022-12-23T05:55:19.766Z,20.73
2022-12-23T06:00:23.526Z,21.17
2022-12-23T06:05:26.911Z,21.58
2022-12-23T06:10:30.295Z,21.40
2022-12-23T06:20:36.911Z,21.88
2022-12-23T06:25:40.737Z,20.42
2022-12-23T06:30:44.061Z,17.92
2022-12-23T06:35:48.330Z,21.08
2022-12-23T06:40:53.179Z,19.33
2022-12-23T06:45:57.101Z,19.65
2022-12-23T06:51:00.722Z,18.30
2022-12-23T06:56:05.047Z,19.92
2022-12-23T07:01:10.127Z,20.38
2022-12-23T07:06:14.130Z,19.45
2022-12-23T07:11:17.533Z,19.75
2022-12-23T07:16:20.954Z,20.77
2022-12-23T07:21:29.446Z,20.80
2022-12-23T07:26:33.591Z,21.38
2022-12-23T07:31:40.710Z,21.48
2022-12-23T07:36:44.920Z,20.63
2022-12-23T07:41:55.499Z,21.83
2022-12-23T07:47:07.323Z,23.85
2022-12-23T07:52:11.043Z,23.08
2022-12-23T07:57:14.476Z,23.20
2022-12-23T08:02:18.033Z,22.83
2022-12-23T08:07:21.603Z,24.02
2022-12-23T08:12:25.557Z,23.80
2022-12-23T08:17:30.601Z,24.45
2022-12-23T08:22:33.920Z,23.25
2022-12-23T08:37:43.989Z,23.10
2022-12-23T08:42:47.356Z,22.50
2022-12-23T08:47:50.662Z,24.08
2022-12-23T08:57:57.326Z,23.23
2022-12-23T09:03:04.444Z,22.70
2022-12-23T09:08:09.589Z,22.52
2022-12-23T09:13:22.317Z,25.30
2022-12-23T09:18:31.411Z,22.73
2022-12-23T09:23:35.228Z,23.60
2022-12-23T09:28:40.181Z,24.35
2022-12-23T09:33:46.682Z,22.17
2022-12-23T09:38:58.052Z,23.63
2022-12-23T09:44:02.375Z,23.73
2022-12-23T09:49:13.108Z,23.25
2022-12-23T09:54:27.914Z,22.67
2022-12-23T09:59:49.472Z,22.65
2022-12-23T10:05:11.788Z,21.25
2022-12-23T10:10:39.608Z,21.98
2022-12-23T10:15:50.473Z,24.10
2022-12-23T10:21:03.508Z,22.95
2022-12-23T10:26:20.986Z,22.30
2022-12-23T10:31:42.028Z,22.75
2022-12-23T10:36:57.174Z,22.85
2022-12-23T10:42:40.847Z,21.92
2022-12-23T10:48:14.399Z,21.60
2022-12-23T10:53:37.726Z,23.85
2022-12-23T10:58:45.062Z,23.73
2022-12-23T11:04:06.456Z,25.15
2022-12-23T11:09:20.882Z,23.85
2022-12-23T11:14:43.098Z,23.30
2022-12-23T11:19:46.784Z,26.40
2022-12-23T11:24:50.891Z,24.80
2022-12-23T11:29:55.331Z,26.67
2022-12-23T11:35:01.185Z,24.63
2022-12-23T11:40:06.938Z,25.38
2022-12-23T11:45:10.484Z,25.85
2022-12-23T11:50:36.194Z,26.25
2022-12-23T11:55:46.740Z,25.50
2022-12-23T12:00:56.995Z,25.63
2022-12-23T12:06:04.543Z,25.55
2022-12-23T12:11:17.823Z,25.55
2022-12-23T12:16:31.627Z,24.80
2022-12-23T12:21:39.061Z,23.80
2022-12-23T12:26:46.329Z,23.67
2022-12-23T12:31:53.724Z,24.58
2022-12-23T12:37:07.322Z,25.98
2022-12-23T12:42:20.834Z,25.23
2022-12-23T12:48:11.669Z,27.35
2022-12-23T12:53:22.803Z,26.20
2022-12-23T12:58:26.399Z,25.33
2022-12-23T13:04:05.102Z,24.60
2022-12-23T13:09:28.241Z,24.83
2022-12-23T13:14:31.529Z,24.03
2022-12-23T13:19:56.155Z,24.98
2022-12-23T13:25:05.730Z,25.95
2022-12-23T13:30:20.682Z,26.60
2022-12-23T13:35:33.240Z,25.05
2022-12-23T13:41:13.136Z,26.77
2022-12-23T13:46:27.195Z,24.23
2022-12-23T13:51:40.753Z,25.65
2022-12-23T13:56:53.349Z,24.92
2022-12-23T14:01:56.773Z,26.50
2022-12-23T14:07:25.737Z,25.95
2022-12-23T14:12:36.278Z,24.75
2022-12-23T14:18:10.906Z,25.40
2022-12-23T14:23:30.480Z,25.73
2022-12-23T14:28:48.918Z,24.95
2022-12-23T14:33:52.933Z,24.83
2022-12-23T14:39:14.381Z,25.50
2022-12-23T14:44:42.069Z,25.83
2022-12-23T14:49:45.485Z,25.80
2022-12-23T14:55:06.420Z,25.13
2022-12-23T15:00:13.594Z,25.52
2022-12-23T15:05:23.203Z,25.92
2022-12-23T15:10:28.096Z,25.30
2022-12-23T15:15:32.356Z,23.17
2022-12-23T15:20:35.786Z,21.63
2022-12-23T15:25:44.589Z,21.60
2022-12-23T15:30:53.505Z,19.75
2022-12-23T15:35:57.758Z,19.83
2022-12-23T15:41:04.336Z,18.50
2022-12-23T15:46:10.825Z,19.08
2022-12-23T15:51:58.254Z,19.20
2022-12-23T15:56:54.648Z,18.27
2022-12-23T16:01:58.656Z,17.27
2022-12-23T16:07:03.101Z,17.98
2022-12-23T16:12:27.318Z,17.55
2022-12-23T16:17:35.275Z,17.38
2022-12-23T16:22:38.736Z,17.27
2022-12-23T16:27:47.566Z,16.73
2022-12-23T16:32:55.278Z,16.00
2022-12-23T16:38:14.475Z,16.48
2022-12-23T16:43:19.883Z,17.08
2022-12-23T16:48:35.580Z,15.77
2022-12-23T16:53:39.153Z,18.40
2022-12-23T16:58:43.698Z,19.70
2022-12-23T17:03:47.814Z,19.83
2022-12-23T17:08:53.732Z,18.25
2022-12-23T17:14:03.485Z,18.25
2022-12-23T17:19:08.126Z,18.77
2022-12-23T17:24:23.414Z,19.70
2022-12-23T17:29:26.892Z,20.10
2022-12-23T17:34:30.954Z,20.02
2022-12-23T17:39:34.752Z,20.80
2022-12-23T17:44:38.384Z,22.13
2022-12-23T17:49:42.544Z,20.42
2022-12-23T17:54:49.572Z,22.25
2022-12-23T17:59:54.642Z,20.25
2022-12-23T18:04:58.148Z,20.58
2022-12-23T18:10:01.522Z,19.45
2022-12-23T18:15:08.270Z,18.70
2022-12-23T18:20:20.780Z,17.35
2022-12-23T18:25:26.855Z,18.60
2022-12-23T18:30:30.500Z,17.40
2022-12-23T18:35:38.528Z,17.00
2022-12-23T18:40:43.235Z,18.17
2022-12-23T18:45:52.479Z,17.30
2022-12-23T18:50:56.867Z,16.30
2022-12-23T18:56:00.496Z,16.33
2022-12-23T19:01:04.841Z,16.67
2022-12-23T19:06:10.412Z,16.15
2022-12-23T19:11:19.087Z,16.60
2022-12-23T19:16:22.686Z,15.52
2022-12-23T19:21:26.394Z,17.08
2022-12-23T19:26:29.740Z,16.88
2022-12-23T19:36:36.356Z,16.55
2022-12-23T19:41:40.731Z,17.88
2022-12-23T19:46:44.524Z,18.10
2022-12-23T19:51:48.818Z,18.10
2022-12-23T19:56:52.423Z,18.90
2022-12-23T20:01:56.768Z,18.58
2022-12-23T20:07:00.439Z,17.30
2022-12-23T20:12:04.248Z,19.00
2022-12-23T20:17:07.749Z,19.33
2022-12-23T20:22:11.633Z,20.10
2022-12-23T20:27:16.262Z,19.27
2022-12-23T20:32:21.339Z,18.58
2022-12-23T20:37:25.564Z,19.67
2022-12-23T20:42:29.150Z,19.80
2022-12-23T20:47:33.855Z,19.15
2022-12-23T20:52:37.690Z,19.08
2022-12-23T20:57:44.248Z,20.83
2022-12-23T21:02:47.751Z,19.27
2022-12-23T21:07:51.260Z,20.42
2022-12-23T21:12:54.605Z,19.10
2022-12-23T21:23:01.406Z,20.15
2022-12-23T21:28:06.005Z,21.20
2022-12-23T21:33:09.349Z,21.73
2022-12-23T21:38:12.836Z,21.70
2022-12-23T21:43:16.624Z,23.48
2022-12-23T21:48:22.892Z,23.27
2022-12-23T21:53:26.365Z,21.63
2022-12-23T21:58:30.199Z,23.25
2022-12-23T22:03:33.596Z,21.67
2022-12-23T22:13:40.777Z,21.13
2022-12-23T22:18:45.493Z,23.65
2022-12-23T22:23:50.530Z,21.60
2022-12-23T22:28:59.729Z,22.58
2022-12-23T22:34:05.357Z,23.80
2022-12-23T22:39:10.808Z,21.73
2022-12-23T22:44:16.518Z,20.17
2022-12-23T22:49:19.981Z,20.35
2022-12-23T22:54:23.347Z,21.85
2022-12-23T23:04:30.367Z,20.40
2022-12-23T23:09:33.954Z,21.55
2022-12-23T23:14:37.267Z,20.15
2022-12-23T23:24:44.507Z,20.10
2022-12-23T23:29:47.998Z,21.02
2022-12-23T23:34:51.330Z,20.45
2022-12-23T23:39:54.728Z,20.15
2022-12-23T23:55:06.097Z,23.25
